Time;durP1;ratioP1;P1;durP2;ratioP2;P2;SDS_P1;SDS_P2;PMS_P1;PMS_P2;Temp;Humidity;BMP_temperature;BMP_pressure;BME280_temperature;BME280_humidity;BME280_pressure;Samples;Min_cycle;Max_cycle;Signal;HPM_P1;HPM_P2
2021/04/13 00:03:47;;;;;;;13.67;8.77;;;;;-0.80;102676.00;;;;9775828;30;20209;-73
2021/04/13 00:08:53;;;;;;;13.27;9.17;;;;;-0.80;102680.00;;;;9793670;30;20355;-73
2021/04/13 00:13:59;;;;;;;15.63;10.43;;;;;-0.90;102680.00;;;;9791524;30;20701;-73
2021/04/13 00:19:04;;;;;;;17.10;11.27;;;;;-0.90;102682.00;;;;9792656;30;20212;-73
2021/04/13 00:24:11;;;;;;;13.37;10.37;;;;;-0.90;102684.00;;;;9793346;30;20220;-73
2021/04/13 00:29:17;;;;;;;12.30;9.13;;;;;-1.00;102684.00;;;;9807635;30;20198;-73
2021/04/13 00:34:19;;;;;;;13.10;8.43;;;;;-1.00;102688.00;;;;9792705;30;20250;-73
2021/04/13 00:39:26;;;;;;;14.93;8.13;;;;;-0.90;102693.00;;;;9793277;30;20221;-73
2021/04/13 00:44:49;;;;;;;12.03;8.70;;;;;-0.80;102703.00;;;;9792868;30;20312;-73
2021/04/13 00:49:55;;;;;;;12.80;7.90;;;;;-0.70;102695.00;;;;9807786;30;20202;-73
2021/04/13 00:54:59;;;;;;;15.03;7.97;;;;;-0.70;102692.00;;;;9778592;30;20241;-73
2021/04/13 01:00:03;;;;;;;12.50;7.10;;;;;-0.70;102693.00;;;;9763770;30;20995;-73
2021/04/13 01:05:20;;;;;;;13.23;8.27;;;;;-0.70;102694.00;;;;9868609;24;20307;-73
2021/04/13 01:10:32;;;;;;;9.10;6.60;;;;;-0.70;102693.00;;;;9925908;29;20215;-73
2021/04/13 01:15:33;;;;;;;14.23;6.90;;;;;-0.70;102692.00;;;;9924640;29;20226;-73
2021/04/13 01:20:51;;;;;;;14.13;7.50;;;;;-0.60;102687.00;;;;9924241;29;20211;-73
2021/04/13 01:26:00;;;;;;;11.83;6.57;;;;;-0.70;102692.00;;;;9923938;29;20211;-73
2021/04/13 01:36:49;;;;;;;11.47;7.80;;;;;-0.70;102685.00;;;;9902210;29;20231;-73
2021/04/13 01:41:58;;;;;;;12.83;7.43;;;;;-0.70;102690.00;;;;9938995;29;20252;-73
2021/04/13 01:47:01;;;;;;;11.40;6.50;;;;;-0.80;102700.00;;;;9937852;29;20240;-73
2021/04/13 01:52:08;;;;;;;12.13;7.20;;;;;-0.80;102684.00;;;;9908926;29;20306;-73
2021/04/13 01:57:30;;;;;;;9.43;7.00;;;;;-0.90;102694.00;;;;9939476;29;20230;-74
2021/04/13 02:02:36;;;;;;;13.03;8.00;;;;;-0.90;102702.00;;;;9913166;29;20214;-73
2021/04/13 02:08:02;;;;;;;12.83;7.20;;;;;-1.00;102706.00;;;;9902347;29;20208;-73
2021/04/13 02:13:15;;;;;;;14.87;6.93;;;;;-1.00;102716.00;;;;9900994;29;20199;-73
2021/04/13 02:18:29;;;;;;;10.97;7.50;;;;;-1.10;102713.00;;;;9870099;29;20238;-73
2021/04/13 02:23:32;;;;;;;10.43;7.20;;;;;-1.10;102714.00;;;;9885193;29;20617;-73
2021/04/13 02:28:36;;;;;;;12.93;7.73;;;;;-1.20;102717.00;;;;9885476;29;20885;-73
2021/04/13 02:33:42;;;;;;;13.07;7.53;;;;;-1.20;102714.00;;;;9898387;29;20242;-73
2021/04/13 02:38:52;;;;;;;11.43;7.87;;;;;-1.20;102710.00;;;;9899376;29;20260;-73
2021/04/13 02:43:57;;;;;;;11.50;7.37;;;;;-1.20;102705.00;;;;9899667;29;20253;-73
2021/04/13 02:49:18;;;;;;;15.30;7.97;;;;;-1.20;102699.00;;;;9899752;29;20731;-73
2021/04/13 02:54:23;;;;;;;13.90;8.40;;;;;-1.30;102708.00;;;;9899989;29;20323;-73
2021/04/13 02:59:29;;;;;;;11.83;8.20;;;;;-1.40;102717.00;;;;9892664;29;20273;-73
2021/04/13 03:04:45;;;;;;;12.80;8.43;;;;;-1.40;102720.00;;;;9861089;30;20228;-74
2021/04/13 03:09:50;;;;;;;11.87;8.00;;;;;-1.40;102708.00;;;;9846637;30;20235;-73
2021/04/13 03:14:55;;;;;;;11.83;8.37;;;;;-1.40;102715.00;;;;9861174;30;20319;-73
2021/04/13 03:20:12;;;;;;;15.33;8.40;;;;;-1.50;102714.00;;;;9861438;29;20215;-73
2021/04/13 03:25:14;;;;;;;13.10;9.00;;;;;-1.60;102725.00;;;;9846221;30;20200;-73
2021/04/13 03:30:22;;;;;;;13.73;8.33;;;;;-1.60;102717.00;;;;9861648;30;20205;-73
2021/04/13 03:35:26;;;;;;;20.17;8.97;;;;;-1.70;102717.00;;;;9847109;30;20392;-73
2021/04/13 03:40:31;;;;;;;15.00;8.57;;;;;-1.70;102713.00;;;;9853998;30;20269;-73
2021/04/13 03:45:34;;;;;;;14.07;9.53;;;;;-1.70;102706.00;;;;9851544;30;20235;-73
2021/04/13 03:50:39;;;;;;;17.70;9.47;;;;;-1.70;102707.00;;;;9852618;30;20205;-74
2021/04/13 03:56:05;;;;;;;15.60;9.90;;;;;-1.60;102715.00;;;;9867458;30;20239;-73
2021/04/13 04:01:09;;;;;;;14.03;9.60;;;;;-1.60;102706.00;;;;9852383;30;20216;-73
2021/04/13 04:06:47;;;;;;;15.70;10.07;;;;;-1.60;102717.00;;;;9853802;30;20224;-74
2021/04/13 04:11:50;;;;;;;12.53;9.40;;;;;-1.70;102717.00;;;;9853137;30;20200;-73
2021/04/13 04:17:02;;;;;;;14.73;9.43;;;;;-1.70;102720.00;;;;9837065;30;20642;-73
2021/04/13 04:22:08;;;;;;;18.73;11.60;;;;;-1.70;102718.00;;;;9865998;30;20270;-73
2021/04/13 04:27:34;;;;;;;20.00;10.70;;;;;-1.80;102730.00;;;;9823051;30;20211;-73
2021/04/13 04:32:43;;;;;;;16.10;9.83;;;;;-1.80;102726.00;;;;9868126;29;20858;-73
2021/04/13 04:37:51;;;;;;;21.10;11.23;;;;;-1.70;102734.00;;;;9906438;29;20307;-73
2021/04/13 04:42:54;;;;;;;17.27;10.47;;;;;-1.70;102738.00;;;;9890315;29;20208;-73
2021/04/13 04:47:55;;;;;;;17.33;9.90;;;;;-1.70;102738.00;;;;9904134;29;20912;-73
2021/04/13 04:52:57;;;;;;;18.43;10.63;;;;;-1.70;102744.00;;;;9890362;29;20208;-73
2021/04/13 04:58:07;;;;;;;16.37;10.83;;;;;-1.70;102739.00;;;;9891088;29;20246;-73
2021/04/13 05:03:08;;;;;;;20.17;11.53;;;;;-1.60;102748.00;;;;9887237;29;20263;-73
2021/04/13 05:08:10;;;;;;;38.33;20.93;;;;;-1.50;102755.00;;;;9903172;29;20204;-73
2021/04/13 05:13:12;;;;;;;29.43;16.97;;;;;-1.30;102763.00;;;;9902581;29;20274;-73
2021/04/13 05:18:14;;;;;;;27.43;15.00;;;;;-1.20;102768.00;;;;9887177;29;20207;-73
2021/04/13 05:23:15;;;;;;;22.07;12.83;;;;;-1.10;102764.00;;;;9902353;29;20622;-73
2021/04/13 05:28:19;;;;;;;18.97;12.57;;;;;-0.80;102772.00;;;;9902545;29;20203;-74
2021/04/13 05:33:22;;;;;;;23.73;14.20;;;;;-0.40;102784.00;;;;9901772;29;20254;-73
2021/04/13 05:38:35;;;;;;;22.20;13.50;;;;;0.20;102799.00;;;;9887574;29;20732;-73
2021/04/13 05:43:38;;;;;;;24.67;12.43;;;;;0.70;102803.00;;;;9865389;29;20235;-73
2021/04/13 05:48:39;;;;;;;19.60;13.67;;;;;1.00;102797.00;;;;9848777;30;20216;-73
2021/04/13 05:53:41;;;;;;;18.90;13.37;;;;;1.40;102810.00;;;;9865104;30;20236;-73
2021/04/13 05:58:46;;;;;;;22.53;14.03;;;;;1.70;102805.00;;;;9865458;30;20209;-73
2021/04/13 06:03:47;;;;;;;24.90;15.60;;;;;1.90;102819.00;;;;9876564;29;20236;-73
2021/04/13 06:08:49;;;;;;;21.50;14.50;;;;;2.20;102823.00;;;;9871615;29;20615;-72
2021/04/13 06:13:55;;;;;;;27.57;14.27;;;;;2.60;102828.00;;;;9885219;29;20230;-73
2021/04/13 06:18:56;;;;;;;24.03;13.57;;;;;3.00;102841.00;;;;9884446;29;20795;-72
2021/04/13 06:23:58;;;;;;;16.70;12.77;;;;;3.50;102840.00;;;;9855656;29;20255;-73
2021/04/13 06:29:00;;;;;;;18.53;11.60;;;;;4.00;102837.00;;;;9875827;29;20262;-72
2021/04/13 06:34:02;;;;;;;19.63;11.90;;;;;4.40;102832.00;;;;9882222;29;20735;-73
2021/04/13 06:39:04;;;;;;;18.50;12.47;;;;;4.90;102839.00;;;;9899543;29;20722;-72
2021/04/13 06:44:41;;;;;;;21.13;12.20;;;;;5.30;102836.00;;;;9899200;29;20683;-70
2021/04/13 06:49:42;;;;;;;22.37;11.93;;;;;5.60;102840.00;;;;9883966;29;20260;-73
2021/04/13 06:54:53;;;;;;;16.47;11.00;;;;;6.00;102839.00;;;;9897565;29;20227;-72
2021/04/13 07:00:12;;;;;;;20.00;11.27;;;;;6.30;102830.00;;;;9893568;29;20298;-73
2021/04/13 07:05:46;;;;;;;13.93;9.93;;;;;6.70;102821.00;;;;9840434;29;20235;-72
2021/04/13 07:10:56;;;;;;;17.97;10.10;;;;;7.10;102813.00;;;;9890191;29;20215;-72
2021/04/13 07:16:05;;;;;;;15.60;9.90;;;;;7.60;102792.00;;;;9892060;29;20232;-73
2021/04/13 07:21:19;;;;;;;16.67;10.30;;;;;8.00;102793.00;;;;9901539;29;20932;-72
2021/04/13 07:26:37;;;;;;;10.10;8.07;;;;;8.70;102777.00;;;;9917666;29;20572;-72
2021/04/13 07:32:05;;;;;;;10.60;7.90;;;;;9.40;102788.00;;;;9904364;29;20679;-70
2021/04/13 07:37:35;;;;;;;13.50;6.90;;;;;9.70;102798.00;;;;9897265;29;20254;-71
2021/04/13 07:42:41;;;;;;;13.17;7.97;;;;;10.30;102783.00;;;;9889832;29;20616;-71
2021/04/13 07:47:59;;;;;;;7.57;4.77;;;;;11.10;102783.00;;;;9899423;29;20204;-71
2021/04/13 07:53:10;;;;;;;13.23;6.60;;;;;10.90;102789.00;;;;9903991;29;20207;-71
2021/04/13 07:58:16;;;;;;;15.20;7.00;;;;;10.40;102796.00;;;;9898380;29;20234;-71
2021/04/13 08:03:31;;;;;;;12.60;4.93;;;;;10.40;102802.00;;;;9876295;29;20662;-72
2021/04/13 08:08:36;;;;;;;8.23;3.67;;;;;10.70;102785.00;;;;9894795;29;20207;-71
2021/04/13 08:13:40;;;;;;;3.77;1.23;;;;;10.80;102784.00;;;;9897983;29;20715;-71
2021/04/13 08:18:44;;;;;;;6.60;1.60;;;;;10.30;102798.00;;;;9903026;29;20216;-71
2021/04/13 08:23:46;;;;;;;9.47;2.73;;;;;10.50;102787.00;;;;9888577;29;20292;-72
2021/04/13 08:29:39;;;;;;;6.97;2.40;;;;;11.30;102777.00;;;;9917685;29;20203;-71
2021/04/13 08:35:04;;;;;;;5.67;2.40;;;;;12.30;102774.00;;;;9878678;29;20295;-72
2021/04/13 08:40:23;;;;;;;7.23;2.77;;;;;13.50;102774.00;;;;9875062;29;20214;-72
2021/04/13 08:45:41;;;;;;;5.90;1.67;;;;;12.60;102792.00;;;;9883196;29;20299;-73
2021/04/13 08:50:48;;;;;;;5.70;2.10;;;;;12.40;102798.00;;;;9873003;29;20211;-73
2021/04/13 08:56:04;;;;;;;7.80;2.67;;;;;11.20;102805.00;;;;9880322;29;20265;-73
2021/04/13 09:01:25;;;;;;;9.60;1.87;;;;;12.10;102780.00;;;;9850328;29;20223;-73
2021/04/13 09:06:47;;;;;;;8.30;2.20;;;;;12.90;102775.00;;;;9850803;29;20238;-73
2021/04/13 09:12:16;;;;;;;5.07;2.37;;;;;13.50;102774.00;;;;9873503;29;20592;-72
2021/04/13 09:17:17;;;;;;;3.80;1.80;;;;;13.80;102773.00;;;;9869259;29;20828;-72
2021/04/13 09:22:21;;;;;;;6.90;2.53;;;;;14.10;102777.00;;;;9897972;29;20716;-71
2021/04/13 09:27:37;;;;;;;5.67;2.60;;;;;14.50;102769.00;;;;9898174;29;20212;-71
2021/04/13 09:32:43;;;;;;;4.20;2.57;;;;;14.80;102774.00;;;;9895843;29;20218;-71
2021/04/13 09:38:03;;;;;;;4.80;2.60;;;;;15.60;102778.00;;;;9865783;29;20607;-71
2021/04/13 09:43:11;;;;;;;8.10;2.80;;;;;16.10;102780.00;;;;9896573;29;20242;-71
2021/04/13 09:48:50;;;;;;;5.17;2.77;;;;;15.30;102785.00;;;;9895108;29;20219;-71
2021/04/13 09:54:18;;;;;;;7.77;3.03;;;;;13.30;102779.00;;;;9861828;29;20945;-71
2021/04/13 09:59:42;;;;;;;7.37;3.20;;;;;13.80;102772.00;;;;9870595;29;20307;-73
2021/04/13 10:05:13;;;;;;;4.00;2.40;;;;;15.10;102761.00;;;;9874308;29;20222;-71
2021/04/13 10:10:26;;;;;;;7.37;2.33;;;;;17.00;102752.00;;;;9911617;29;20212;-72
2021/04/13 10:16:02;;;;;;;6.90;2.47;;;;;16.90;102757.00;;;;9868713;29;20235;-72
2021/04/13 10:29:28;;;;;;;7.23;3.20;;;;;15.50;102755.00;;;;9860458;29;20200;-71
2021/04/13 10:35:24;;;;;;;5.27;3.47;;;;;13.30;102769.00;;;;9894802;29;20592;-71
2021/04/13 10:40:32;;;;;;;9.10;3.57;;;;;12.30;102767.00;;;;9878138;29;20643;-72
2021/04/13 10:46:05;;;;;;;12.37;3.83;;;;;12.70;102756.00;;;;9905457;29;20235;-72
2021/04/13 10:51:39;;;;;;;7.63;3.47;;;;;14.50;102749.00;;;;9864818;29;20299;-72
2021/04/13 10:57:18;;;;;;;7.27;2.53;;;;;16.60;102729.00;;;;9869190;29;20234;-72
2021/04/13 11:02:59;;;;;;;3.80;2.57;;;;;18.00;102728.00;;;;9890556;29;20228;-72
2021/04/13 11:08:13;;;;;;;4.45;2.60;;;;;17.70;102729.00;;;;9885975;29;20218;-71
2021/04/13 11:13:32;;;;;;;4.60;2.80;;;;;15.50;102743.00;;;;9866439;29;20223;-72
2021/04/13 11:19:20;;;;;;;5.13;3.10;;;;;12.90;102741.00;;;;9858177;30;20215;-72
2021/04/13 11:24:36;;;;;;;5.40;3.20;;;;;11.70;102738.00;;;;9868648;29;20223;-72
2021/04/13 11:30:20;;;;;;;6.13;3.33;;;;;11.20;102743.00;;;;9895551;29;20215;-72
2021/04/13 11:35:28;;;;;;;6.60;3.20;;;;;11.10;102722.00;;;;9898883;29;20313;-72
2021/04/13 11:40:39;;;;;;;8.47;2.77;;;;;12.30;102702.00;;;;9897599;29;20212;-72
2021/04/13 11:46:06;;;;;;;4.93;2.80;;;;;14.20;102704.00;;;;9896598;29;20211;-72
2021/04/13 11:51:38;;;;;;;6.37;2.90;;;;;15.30;102701.00;;;;9897323;29;20216;-72
2021/04/13 11:56:40;;;;;;;3.97;2.30;;;;;16.40;102687.00;;;;9895601;29;20231;-72
2021/04/13 12:01:47;;;;;;;2.67;2.00;;;;;17.60;102683.00;;;;9882714;29;20560;-73
2021/04/13 12:06:59;;;;;;;3.83;1.77;;;;;17.70;102677.00;;;;9886855;29;20664;-72
2021/04/13 12:12:01;;;;;;;4.55;1.92;;;;;17.30;102672.00;;;;9912820;29;20214;-73
2021/04/13 12:17:06;;;;;;;5.17;1.80;;;;;16.60;102665.00;;;;9883764;29;20956;-73
2021/04/13 12:22:34;;;;;;;4.47;1.70;;;;;15.40;102677.00;;;;9897826;29;20735;-72
2021/04/13 12:27:35;;;;;;;2.83;1.90;;;;;15.70;102665.00;;;;9917312;29;20254;-72
2021/04/13 12:32:46;;;;;;;2.73;1.43;;;;;16.40;102667.00;;;;9905413;29;20787;-73
2021/04/13 12:37:48;;;;;;;1.00;0.80;;;;;16.70;102676.00;;;;9865550;29;20231;-72
2021/04/13 12:43:24;;;;;;;3.53;1.23;;;;;15.90;102676.00;;;;9879782;29;20235;-72
2021/04/13 12:48:29;;;;;;;1.40;1.00;;;;;16.10;102669.00;;;;9896662;29;20265;-72
2021/04/13 12:53:30;;;;;;;3.43;1.00;;;;;16.50;102667.00;;;;9890932;29;20571;-73
2021/04/13 12:58:38;;;;;;;2.63;1.23;;;;;16.80;102658.00;;;;9876399;29;20248;-73
2021/04/13 13:03:40;;;;;;;2.33;1.00;;;;;17.40;102648.00;;;;9917189;29;20236;-73
2021/04/13 13:08:42;;;;;;;2.67;1.27;;;;;18.10;102642.00;;;;9884823;29;20212;-73
2021/04/13 13:13:49;;;;;;;3.33;1.20;;;;;18.90;102638.00;;;;9882259;29;20227;-74
2021/04/13 13:19:44;;;;;;;4.70;1.48;;;;;18.80;102650.00;;;;9913437;29;20219;-73
2021/04/13 13:24:49;;;;;;;6.28;1.65;;;;;16.70;102644.00;;;;9886955;29;20679;-73
2021/04/13 13:29:51;;;;;;;2.60;1.00;;;;;16.70;102650.00;;;;9873618;30;20203;-73
2021/04/13 13:34:55;;;;;;;2.73;0.87;;;;;15.70;102653.00;;;;9897159;29;20342;-73
2021/04/13 13:39:58;;;;;;;3.33;1.27;;;;;14.70;102642.00;;;;9887278;29;20942;-72
2021/04/13 13:45:01;;;;;;;8.07;1.80;;;;;14.40;102642.00;;;;9869846;30;20689;-73
2021/04/13 13:50:15;;;;;;;4.57;1.40;;;;;18.60;102614.00;;;;9882807;29;21082;-74
2021/04/13 13:55:16;;;;;;;5.30;1.47;;;;;18.60;102617.00;;;;9888633;29;20268;-74
2021/04/13 14:00:45;;;;;;;3.67;1.13;;;;;15.80;102627.00;;;;9898237;29;20207;-73
2021/04/13 14:05:51;;;;;;;4.27;1.53;;;;;14.40;102626.00;;;;9895916;29;20270;-73
2021/04/13 14:10:53;;;;;;;6.83;1.83;;;;;13.20;102626.00;;;;9886333;29;20241;-73
2021/04/13 14:15:54;;;;;;;4.10;1.40;;;;;12.00;102627.00;;;;9885336;29;20235;-73
2021/04/13 14:21:03;;;;;;;4.23;1.50;;;;;11.40;102625.00;;;;9875582;29;20212;-73
2021/04/13 14:26:13;;;;;;;8.60;1.80;;;;;11.10;102638.00;;;;9852018;29;20211;-73
2021/04/13 14:31:16;;;;;;;2.33;2.00;;;;;11.10;102623.00;;;;9878098;29;20214;-73
2021/04/13 14:36:18;;;;;;;6.97;2.27;;;;;11.10;102639.00;;;;9915001;29;20223;-73
2021/04/13 14:41:19;;;;;;;1.43;1.33;;;;;11.40;102621.00;;;;9862220;29;20230;-73
2021/04/13 14:46:20;;;;;;;2.20;1.70;;;;;11.20;102630.00;;;;9883780;29;20234;-72
2021/04/13 14:51:22;;;;;;;3.77;1.27;;;;;11.50;102625.00;;;;9897284;29;20540;-73
2021/04/13 14:56:24;;;;;;;3.63;1.30;;;;;12.00;102607.00;;;;9858974;30;20228;-72
2021/04/13 15:01:26;;;;;;;1.60;1.27;;;;;12.30;102613.00;;;;9880968;29;20208;-73
2021/04/13 15:06:29;;;;;;;1.90;1.33;;;;;12.50;102608.00;;;;9872725;29;20232;-73
2021/04/13 15:11:30;;;;;;;1.80;1.10;;;;;13.10;102604.00;;;;9869481;29;20219;-73
2021/04/13 15:16:31;;;;;;;3.10;1.37;;;;;14.30;102580.00;;;;9857037;29;20929;-73
2021/04/13 15:21:33;;;;;;;5.13;2.63;;;;;16.00;102567.00;;;;9885235;29;20262;-73
2021/04/13 15:26:34;;;;;;;5.97;1.80;;;;;18.70;102571.00;;;;9886128;29;20253;-73
2021/04/13 15:31:39;;;;;;;2.80;1.47;;;;;15.20;102581.00;;;;9887555;29;20284;-73
2021/04/13 15:36:49;;;;;;;2.97;1.40;;;;;14.30;102573.00;;;;9889099;29;20335;-73
2021/04/13 15:41:56;;;;;;;4.67;1.63;;;;;14.30;102568.00;;;;9870376;29;20243;-73
2021/04/13 15:46:57;;;;;;;4.03;1.13;;;;;14.90;102564.00;;;;9899793;29;20308;-73
2021/04/13 15:52:00;;;;;;;4.03;1.40;;;;;17.50;102548.00;;;;9890576;29;20215;-73
2021/04/13 15:57:05;;;;;;;3.60;1.30;;;;;18.30;102557.00;;;;9903805;29;20239;-74
2021/04/13 16:02:06;;;;;;;2.37;1.00;;;;;16.20;102555.00;;;;9885777;29;20231;-73
2021/04/13 16:07:08;;;;;;;2.23;1.30;;;;;17.60;102538.00;;;;10059603;24;21152;-76
2021/04/13 16:12:10;;;;;;;2.43;1.20;;;;;15.40;102547.00;;;;9891415;29;20215;-76
2021/04/13 16:17:11;;;;;;;2.97;1.47;;;;;14.40;102546.00;;;;9907342;29;20224;-76
2021/04/13 16:22:13;;;;;;;4.67;1.30;;;;;13.90;102552.00;;;;9914644;29;20294;-74
2021/04/13 16:27:14;;;;;;;3.00;1.23;;;;;13.30;102546.00;;;;9916707;29;20222;-75
2021/04/13 16:32:20;;;;;;;1.80;1.27;;;;;13.00;102552.00;;;;9928420;29;20270;-74
2021/04/13 16:37:25;;;;;;;4.30;1.73;;;;;12.60;102545.00;;;;9925626;29;20333;-74
2021/04/13 16:42:36;;;;;;;4.33;1.10;;;;;12.30;102547.00;;;;9894618;29;20207;-75
2021/04/13 16:47:38;;;;;;;3.70;1.40;;;;;12.00;102551.00;;;;9900482;29;20246;-74
2021/04/13 16:52:42;;;;;;;3.40;1.60;;;;;11.80;102550.00;;;;9930227;29;20208;-75
2021/04/13 16:57:44;;;;;;;3.63;1.67;;;;;11.60;102559.00;;;;9924414;29;20279;-75
2021/04/13 17:03:14;;;;;;;1.90;1.17;;;;;11.50;102551.00;;;;9928163;29;20634;-75
2021/04/13 17:08:43;;;;;;;3.90;1.97;;;;;11.40;102553.00;;;;9899106;29;20686;-76
2021/04/13 17:13:55;;;;;;;3.30;1.53;;;;;11.30;102549.00;;;;9910588;29;20526;-75
2021/04/13 17:19:06;;;;;;;3.97;1.67;;;;;11.20;102557.00;;;;9924878;29;20325;-75
2021/04/13 17:24:18;;;;;;;2.37;1.53;;;;;11.10;102558.00;;;;9895527;29;20762;-75
2021/04/13 17:29:28;;;;;;;2.97;1.73;;;;;10.90;102563.00;;;;9902225;29;20241;-75
2021/04/13 17:34:29;;;;;;;3.87;1.50;;;;;10.60;102561.00;;;;9910886;29;20317;-76
2021/04/13 17:39:39;;;;;;;7.13;1.60;;;;;10.40;102565.00;;;;9925270;29;20214;-75
2021/04/13 17:44:54;;;;;;;3.93;1.40;;;;;10.20;102559.00;;;;9940614;29;20225;-76
2021/04/13 17:49:59;;;;;;;4.20;1.60;;;;;10.10;102571.00;;;;9906404;29;20282;-75
2021/04/13 17:55:09;;;;;;;4.17;2.03;;;;;10.00;102574.00;;;;9899056;29;20230;-76
2021/04/13 18:00:12;;;;;;;4.87;2.50;;;;;9.80;102585.00;;;;9913697;29;20288;-76
2021/04/13 18:05:26;;;;;;;4.83;2.50;;;;;9.60;102582.00;;;;9938224;29;20271;-76
2021/04/13 18:10:33;;;;;;;5.83;3.17;;;;;9.50;102593.00;;;;9894447;29;20221;-76
2021/04/13 18:15:44;;;;;;;7.07;3.40;;;;;9.40;102593.00;;;;9930892;29;20643;-76
2021/04/13 18:20:56;;;;;;;5.93;3.80;;;;;9.00;102598.00;;;;9889915;29;20215;-76
2021/04/13 18:26:06;;;;;;;4.20;3.20;;;;;8.80;102609.00;;;;9913077;29;20282;-76
2021/04/13 18:31:17;;;;;;;6.23;3.63;;;;;8.60;102603.00;;;;9909579;29;20219;-75
2021/04/13 18:36:25;;;;;;;4.03;3.10;;;;;8.40;102605.00;;;;9891532;29;20235;-76
2021/04/13 18:41:34;;;;;;;4.53;2.67;;;;;8.20;102613.00;;;;9931650;29;20214;-76
2021/04/13 18:46:40;;;;;;;60.23;43.30;;;;;7.90;102620.00;;;;9928409;29;20203;-76
2021/04/13 18:51:47;;;;;;;29.03;21.97;;;;;7.60;102621.00;;;;9895259;29;20327;-76
2021/04/13 18:56:56;;;;;;;27.17;11.17;;;;;7.40;102625.00;;;;9928905;29;20622;-76
2021/04/13 19:02:41;;;;;;;4.10;3.70;;;;;7.10;102632.00;;;;9892811;29;20587;-75
2021/04/13 19:08:15;;;;;;;6.30;3.33;;;;;6.80;102631.00;;;;9880054;29;20254;-75
2021/04/13 19:13:13;;;;;;;4.57;3.57;;;;;6.60;102642.00;;;;9909059;29;20641;-75
2021/04/13 19:18:47;;;;;;;5.23;4.10;;;;;6.40;102645.00;;;;9885850;29;20233;-75
2021/04/13 19:23:55;;;;;;;5.23;3.90;;;;;6.20;102651.00;;;;9897200;29;20729;-76
2021/04/13 19:29:08;;;;;;;6.33;3.50;;;;;6.10;102655.00;;;;9885560;29;20227;-75
2021/04/13 19:34:33;;;;;;;5.03;3.37;;;;;6.00;102647.00;;;;9907361;29;20617;-76
2021/04/13 19:39:34;;;;;;;4.73;3.27;;;;;5.80;102652.00;;;;9926743;29;20866;-75
2021/04/13 19:44:44;;;;;;;7.00;4.07;;;;;5.60;102661.00;;;;9906704;29;20244;-75
2021/04/13 19:49:49;;;;;;;8.00;3.40;;;;;5.50;102651.00;;;;9886986;29;20215;-75
2021/04/13 19:54:57;;;;;;;7.47;3.57;;;;;5.30;102660.00;;;;9898513;29;20242;-75
2021/04/13 20:00:00;;;;;;;7.30;3.73;;;;;5.20;102667.00;;;;9911634;29;20211;-75
2021/04/13 20:05:03;;;;;;;5.17;3.10;;;;;5.10;102649.00;;;;9916251;29;20226;-75
2021/04/13 20:10:16;;;;;;;5.57;3.27;;;;;5.00;102656.00;;;;9917066;29;20219;-75
2021/04/13 20:15:29;;;;;;;5.57;3.20;;;;;4.90;102645.00;;;;9898025;29;20288;-75
2021/04/13 20:20:36;;;;;;;5.53;3.90;;;;;4.70;102645.00;;;;9935806;29;20195;-75
2021/04/13 20:25:54;;;;;;;8.83;4.37;;;;;4.50;102646.00;;;;9923774;29;20557;-77
2021/04/13 20:30:59;;;;;;;5.07;4.23;;;;;4.40;102647.00;;;;9922984;29;20217;-77
2021/04/13 20:41:12;;;;;;;7.07;4.83;;;;;4.10;102641.00;;;;9920648;29;20253;-77
2021/04/13 20:46:19;;;;;;;10.53;4.87;;;;;4.00;102641.00;;;;9931524;29;20215;-77
2021/04/13 20:51:31;;;;;;;6.37;4.30;;;;;3.90;102628.00;;;;9937454;29;20297;-77
2021/04/13 20:56:41;;;;;;;6.53;5.13;;;;;3.80;102634.00;;;;9902038;29;20327;-75
2021/04/13 21:01:49;;;;;;;7.87;4.87;;;;;3.70;102633.00;;;;9938043;29;20252;-77
2021/04/13 21:07:13;;;;;;;8.60;5.13;;;;;3.60;102633.00;;;;9922847;29;20309;-77
2021/04/13 21:12:18;;;;;;;7.30;5.30;;;;;3.70;102641.00;;;;9908344;29;20207;-77
2021/04/13 21:17:21;;;;;;;11.43;5.90;;;;;3.70;102627.00;;;;9906905;29;20280;-77
2021/04/13 21:22:29;;;;;;;7.57;5.20;;;;;3.80;102638.00;;;;9936416;29;20260;-77
2021/04/13 21:27:57;;;;;;;5.70;4.80;;;;;3.80;102633.00;;;;9894173;29;20206;-77
2021/04/13 21:33:09;;;;;;;18.17;10.83;;;;;3.90;102633.00;;;;9902793;29;20238;-77
2021/04/13 21:38:10;;;;;;;12.00;6.43;;;;;3.90;102629.00;;;;9890010;29;20235;-77
2021/04/13 21:43:32;;;;;;;9.00;5.90;;;;;3.90;102632.00;;;;9923043;29;20276;-77
2021/04/13 21:48:37;;;;;;;6.83;5.47;;;;;3.80;102635.00;;;;9936120;29;20865;-77
2021/04/13 21:54:08;;;;;;;5.50;4.50;;;;;3.80;102645.00;;;;9898215;29;20221;-77
2021/04/13 21:59:13;;;;;;;8.07;5.80;;;;;3.80;102640.00;;;;9897556;29;20254;-75
2021/04/13 22:04:28;;;;;;;17.00;9.13;;;;;3.80;102633.00;;;;9900164;29;20432;-75
2021/04/13 22:09:31;;;;;;;15.50;9.60;;;;;3.80;102624.00;;;;9919733;29;20203;-75
2021/04/13 22:14:35;;;;;;;10.10;8.43;;;;;3.80;102622.00;;;;9937272;29;20238;-74
2021/04/13 22:19:44;;;;;;;11.17;8.73;;;;;3.80;102622.00;;;;9890919;29;20210;-74
2021/04/13 22:24:47;;;;;;;9.63;7.47;;;;;3.70;102624.00;;;;9906166;29;20269;-74
2021/04/13 22:30:10;;;;;;;11.70;7.13;;;;;3.70;102625.00;;;;9912602;29;20198;-75
2021/04/13 22:35:38;;;;;;;12.10;7.97;;;;;3.60;102625.00;;;;9900397;29;20305;-75
2021/04/13 22:40:43;;;;;;;13.03;8.93;;;;;3.60;102626.00;;;;9887464;29;20918;-74
2021/04/13 22:45:46;;;;;;;14.17;10.00;;;;;3.50;102621.00;;;;9908057;29;20233;-75
2021/04/13 22:50:47;;;;;;;16.13;10.93;;;;;3.50;102613.00;;;;9938390;29;20227;-75
2021/04/13 22:55:58;;;;;;;16.60;10.87;;;;;3.40;102612.00;;;;9921491;29;20226;-75
2021/04/13 23:01:00;;;;;;;15.27;12.13;;;;;3.40;102617.00;;;;9906424;29;20683;-75
2021/04/13 23:06:15;;;;;;;18.73;11.90;;;;;3.40;102611.00;;;;9895244;29;20723;-75
2021/04/13 23:11:28;;;;;;;17.77;12.47;;;;;3.30;102616.00;;;;9909559;29;20207;-75
2021/04/13 23:16:41;;;;;;;16.43;11.90;;;;;3.20;102605.00;;;;9900756;29;20230;-76
2021/04/13 23:21:43;;;;;;;16.03;11.83;;;;;3.20;102608.00;;;;9932429;29;20621;-76
2021/04/13 23:26:45;;;;;;;19.17;12.73;;;;;3.10;102605.00;;;;9885334;29;20204;-76
2021/04/13 23:31:46;;;;;;;18.60;12.67;;;;;3.10;102608.00;;;;9894622;29;20210;-76
2021/04/13 23:36:48;;;;;;;17.20;13.23;;;;;3.00;102604.00;;;;9878967;29;20215;-76
2021/04/13 23:41:49;;;;;;;20.53;13.23;;;;;2.90;102604.00;;;;9901291;29;20626;-76
2021/04/13 23:46:50;;;;;;;17.27;12.07;;;;;2.80;102606.00;;;;9905713;29;20667;-76
2021/04/13 23:51:52;;;;;;;17.67;11.87;;;;;2.70;102602.00;;;;9883201;29;20208;-76
2021/04/13 23:56:53;;;;;;;18.30;11.83;;;;;2.60;102604.00;;;;9907715;29;20227;-76
